Time;durP1;ratioP1;P1;durP2;ratioP2;P2;SDS_P1;SDS_P2;PMS_P1;PMS_P2;Temp;Humidity;BMP_temperature;BMP_pressure;BME280_temperature;BME280_humidity;BME280_pressure;Samples;Min_cycle;Max_cycle;Signal;HPM_P1;HPM_P2
2024/01/16 00:00:41;;;;;;;1.48;1.38;;;;;;;;;;5137255;28;20331;-65
2024/01/16 00:03:08;;;;;;;1.40;1.30;;;;;;;;;;5137874;28;20528;-65
2024/01/16 00:05:36;;;;;;;1.35;1.13;;;;;;;;;;5137148;27;20344;-65
2024/01/16 00:08:03;;;;;;;1.55;1.30;;;;;;;;;;5139992;27;20560;-65
2024/01/16 00:10:31;;;;;;;1.50;1.40;;;;;;;;;;5141842;27;20206;-65
2024/01/16 00:13:00;;;;;;;1.55;1.38;;;;;;;;;;5141479;27;20198;-64
2024/01/16 00:15:27;;;;;;;1.30;1.20;;;;;;;;;;5142065;27;20241;-65
2024/01/16 00:17:55;;;;;;;1.90;1.50;;;;;;;;;;5141039;27;20241;-65
2024/01/16 00:20:25;;;;;;;2.35;1.42;;;;;;;;;;5141112;27;20256;-65
2024/01/16 00:22:52;;;;;;;1.90;1.52;;;;;;;;;;5140982;27;20266;-65
2024/01/16 00:25:21;;;;;;;1.30;1.20;;;;;;;;;;5141233;27;20226;-64
2024/01/16 00:27:48;;;;;;;1.55;1.23;;;;;;;;;;5141429;27;20211;-65
2024/01/16 00:30:17;;;;;;;1.55;1.30;;;;;;;;;;5140592;27;20229;-64
2024/01/16 00:32:45;;;;;;;2.13;1.30;;;;;;;;;;5140353;27;20275;-64
2024/01/16 00:35:13;;;;;;;1.33;1.23;;;;;;;;;;5142184;27;20220;-64
2024/01/16 00:37:40;;;;;;;1.92;1.20;;;;;;;;;;5141175;27;20203;-64
2024/01/16 00:40:09;;;;;;;1.40;1.30;;;;;;;;;;5140756;27;20293;-64
2024/01/16 00:42:37;;;;;;;1.70;1.20;;;;;;;;;;5141155;27;20206;-64
2024/01/16 00:45:05;;;;;;;1.30;1.20;;;;;;;;;;5140349;27;20230;-64
2024/01/16 00:47:34;;;;;;;1.40;1.30;;;;;;;;;;5140916;27;20209;-65
2024/01/16 00:50:02;;;;;;;1.35;1.17;;;;;;;;;;5140577;27;20210;-65
2024/01/16 00:52:29;;;;;;;1.27;1.17;;;;;;;;;;5141303;27;20212;-65
2024/01/16 00:54:57;;;;;;;1.40;1.30;;;;;;;;;;5140582;27;20233;-65
2024/01/16 00:57:24;;;;;;;1.30;1.20;;;;;;;;;;5139733;27;20404;-65
2024/01/16 00:59:52;;;;;;;1.30;1.20;;;;;;;;;;5139945;27;20237;-65
2024/01/16 01:02:19;;;;;;;1.30;1.20;;;;;;;;;;5140526;27;20266;-65
2024/01/16 01:04:48;;;;;;;1.20;1.10;;;;;;;;;;5140305;27;20237;-65
2024/01/16 01:07:15;;;;;;;1.25;1.15;;;;;;;;;;5140784;27;20574;-65
2024/01/16 01:09:43;;;;;;;2.15;1.30;;;;;;;;;;5140669;27;20210;-65
2024/01/16 01:12:11;;;;;;;1.13;1.02;;;;;;;;;;5140018;27;20198;-64
2024/01/16 01:14:38;;;;;;;2.35;1.20;;;;;;;;;;5139952;27;20242;-64
2024/01/16 01:17:06;;;;;;;1.27;1.17;;;;;;;;;;5140314;27;20202;-65
2024/01/16 01:19:34;;;;;;;1.65;1.20;;;;;;;;;;5138983;27;20203;-64
2024/01/16 01:22:03;;;;;;;1.58;1.15;;;;;;;;;;5139670;27;20293;-65
2024/01/16 01:24:30;;;;;;;1.23;1.13;;;;;;;;;;5139808;27;20203;-65
2024/01/16 01:26:59;;;;;;;1.40;1.30;;;;;;;;;;5139811;27;20202;-64
2024/01/16 01:29:26;;;;;;;1.70;1.30;;;;;;;;;;5139666;27;20540;-64
2024/01/16 01:31:54;;;;;;;1.83;1.10;;;;;;;;;;5139859;27;20549;-65
2024/01/16 01:34:21;;;;;;;1.27;1.10;;;;;;;;;;5139861;27;20613;-65
2024/01/16 01:36:48;;;;;;;1.35;1.25;;;;;;;;;;5139886;27;20201;-65
2024/01/16 01:39:18;;;;;;;1.48;1.20;;;;;;;;;;5139586;27;20313;-65
2024/01/16 01:41:45;;;;;;;1.30;1.20;;;;;;;;;;5139512;27;20579;-64
2024/01/16 01:44:15;;;;;;;0.93;0.90;;;;;;;;;;5139535;27;20206;-64
2024/01/16 01:46:44;;;;;;;1.40;1.30;;;;;;;;;;5139576;27;20352;-65
2024/01/16 01:49:13;;;;;;;1.80;1.13;;;;;;;;;;5139264;27;20578;-65
2024/01/16 01:51:40;;;;;;;1.10;1.00;;;;;;;;;;5139314;27;20210;-65
2024/01/16 01:54:09;;;;;;;1.20;1.10;;;;;;;;;;5138843;27;20237;-65
2024/01/16 01:56:38;;;;;;;1.30;1.10;;;;;;;;;;5139123;27;20203;-65
2024/01/16 01:59:06;;;;;;;1.08;1.00;;;;;;;;;;5138779;27;20202;-65
2024/01/16 02:01:33;;;;;;;1.23;1.10;;;;;;;;;;5139264;27;20301;-65
2024/01/16 02:04:01;;;;;;;1.42;1.10;;;;;;;;;;5139251;27;20250;-64
2024/01/16 02:06:29;;;;;;;1.30;1.20;;;;;;;;;;5139114;27;20314;-65
2024/01/16 02:08:57;;;;;;;1.10;1.00;;;;;;;;;;5138668;27;20292;-64
2024/01/16 02:11:24;;;;;;;1.30;1.20;;;;;;;;;;5139003;27;20305;-65
2024/01/16 02:13:53;;;;;;;1.55;0.93;;;;;;;;;;5138993;27;20202;-65
2024/01/16 02:16:21;;;;;;;1.30;1.20;;;;;;;;;;5139110;27;20206;-65
2024/01/16 02:18:47;;;;;;;1.00;0.90;;;;;;;;;;5138633;27;20233;-65
2024/01/16 02:21:17;;;;;;;1.10;0.98;;;;;;;;;;5138444;27;20228;-64
2024/01/16 02:23:46;;;;;;;1.27;1.00;;;;;;;;;;5138540;27;20198;-64
2024/01/16 02:26:14;;;;;;;1.20;1.10;;;;;;;;;;5138683;27;20317;-65
2024/01/16 02:28:42;;;;;;;1.20;1.00;;;;;;;;;;5139271;27;20217;-65
2024/01/16 02:31:10;;;;;;;1.20;1.08;;;;;;;;;;5138113;27;20203;-65
2024/01/16 02:33:37;;;;;;;1.52;1.13;;;;;;;;;;5138595;27;20598;-65
2024/01/16 02:36:05;;;;;;;1.40;1.30;;;;;;;;;;5138374;27;20310;-65
2024/01/16 02:38:33;;;;;;;1.13;1.00;;;;;;;;;;5137809;27;20711;-65
2024/01/16 02:41:02;;;;;;;0.82;0.82;;;;;;;;;;5138098;27;20202;-65
2024/01/16 02:43:29;;;;;;;1.17;1.02;;;;;;;;;;5138351;27;20214;-64
2024/01/16 02:45:57;;;;;;;1.05;0.90;;;;;;;;;;5137381;27;20222;-64
2024/01/16 02:48:25;;;;;;;1.15;1.05;;;;;;;;;;5138506;27;20305;-64
2024/01/16 02:50:53;;;;;;;1.13;1.02;;;;;;;;;;5137771;27;20266;-64
2024/01/16 02:53:20;;;;;;;1.02;1.00;;;;;;;;;;5137712;27;20255;-64
2024/01/16 02:55:48;;;;;;;1.52;1.05;;;;;;;;;;5138083;27;20198;-64
2024/01/16 02:58:16;;;;;;;1.20;1.00;;;;;;;;;;5138416;27;20473;-64
2024/01/16 03:00:44;;;;;;;0.80;0.80;;;;;;;;;;5137578;27;20238;-64
2024/01/16 03:03:12;;;;;;;1.42;1.00;;;;;;;;;;5137672;27;20257;-64
2024/01/16 03:05:40;;;;;;;0.80;0.80;;;;;;;;;;5137785;27;20291;-64
2024/01/16 03:08:07;;;;;;;1.15;1.05;;;;;;;;;;5137519;27;20208;-64
2024/01/16 03:10:35;;;;;;;0.90;0.90;;;;;;;;;;5137581;27;20266;-64
2024/01/16 03:13:02;;;;;;;0.98;0.93;;;;;;;;;;5137434;27;20210;-64
2024/01/16 03:15:34;;;;;;;1.38;0.95;;;;;;;;;;5137384;27;20198;-64
2024/01/16 03:18:01;;;;;;;1.10;1.00;;;;;;;;;;5137475;27;20312;-64
2024/01/16 03:20:29;;;;;;;1.23;1.05;;;;;;;;;;5137956;27;20204;-64
2024/01/16 03:22:57;;;;;;;1.10;1.00;;;;;;;;;;5137099;27;20202;-65
2024/01/16 03:25:24;;;;;;;1.20;1.10;;;;;;;;;;5137082;27;20221;-64
2024/01/16 03:27:52;;;;;;;1.13;1.02;;;;;;;;;;5137229;27;20692;-64
2024/01/16 03:30:19;;;;;;;0.85;0.85;;;;;;;;;;5137611;27;20246;-65
2024/01/16 03:32:48;;;;;;;1.10;1.00;;;;;;;;;;5137273;27;20206;-65
2024/01/16 03:35:16;;;;;;;1.10;1.00;;;;;;;;;;5137135;27;20202;-64
2024/01/16 03:37:43;;;;;;;1.00;0.85;;;;;;;;;;5136905;28;20201;-65
2024/01/16 03:40:12;;;;;;;1.25;0.93;;;;;;;;;;5137258;28;20209;-64
2024/01/16 03:42:40;;;;;;;1.15;1.05;;;;;;;;;;5139662;27;20214;-64
2024/01/16 03:45:08;;;;;;;1.00;0.90;;;;;;;;;;5141400;27;20206;-64
2024/01/16 03:47:35;;;;;;;1.27;1.00;;;;;;;;;;5141713;27;20202;-65
2024/01/16 03:50:04;;;;;;;1.00;0.90;;;;;;;;;;5141544;27;20198;-65
2024/01/16 03:52:32;;;;;;;1.00;0.90;;;;;;;;;;5141276;27;20233;-65
2024/01/16 03:54:59;;;;;;;1.10;1.00;;;;;;;;;;5140836;27;20301;-65
2024/01/16 03:57:27;;;;;;;1.15;1.05;;;;;;;;;;5141020;27;20234;-65
2024/01/16 03:59:55;;;;;;;1.02;0.95;;;;;;;;;;5140609;27;20234;-64
2024/01/16 04:02:22;;;;;;;1.20;1.00;;;;;;;;;;5140014;27;20597;-64
2024/01/16 04:04:50;;;;;;;1.08;0.90;;;;;;;;;;5140684;27;20202;-64
2024/01/16 04:07:18;;;;;;;0.75;0.75;;;;;;;;;;5140647;27;20713;-65
2024/01/16 04:09:46;;;;;;;1.30;1.20;;;;;;;;;;5140409;27;20210;-64
2024/01/16 04:12:14;;;;;;;1.63;1.17;;;;;;;;;;5140125;27;20229;-64
2024/01/16 04:14:42;;;;;;;1.40;1.10;;;;;;;;;;5139996;27;20210;-64
2024/01/16 04:17:09;;;;;;;1.00;0.90;;;;;;;;;;5140246;27;20245;-65
2024/01/16 04:19:37;;;;;;;1.50;1.10;;;;;;;;;;5140128;27;20481;-65
2024/01/16 04:22:05;;;;;;;1.08;1.00;;;;;;;;;;5140188;27;20570;-65
2024/01/16 04:24:34;;;;;;;2.03;1.08;;;;;;;;;;5140056;27;20212;-64
2024/01/16 04:27:01;;;;;;;0.93;0.90;;;;;;;;;;5140753;27;20283;-64
2024/01/16 04:29:29;;;;;;;1.10;1.00;;;;;;;;;;5140249;27;20202;-64
2024/01/16 04:31:57;;;;;;;1.23;1.13;;;;;;;;;;5140353;27;20238;-64
2024/01/16 04:34:24;;;;;;;1.13;1.00;;;;;;;;;;5140383;27;20466;-64
2024/01/16 04:36:52;;;;;;;0.82;0.82;;;;;;;;;;5139932;27;20679;-64
2024/01/16 04:39:22;;;;;;;1.00;0.90;;;;;;;;;;5140298;27;20238;-64
2024/01/16 04:41:51;;;;;;;0.98;0.90;;;;;;;;;;5140153;27;20202;-64
2024/01/16 04:44:18;;;;;;;1.30;0.90;;;;;;;;;;5139785;27;20225;-64
2024/01/16 04:46:46;;;;;;;1.27;1.10;;;;;;;;;;5139609;27;20321;-65
2024/01/16 04:49:13;;;;;;;0.85;0.85;;;;;;;;;;5139800;27;20210;-65
2024/01/16 04:51:41;;;;;;;1.20;1.02;;;;;;;;;;5140151;27;20198;-65
2024/01/16 04:54:09;;;;;;;0.80;0.70;;;;;;;;;;5139669;27;20214;-65
2024/01/16 04:56:36;;;;;;;0.90;0.90;;;;;;;;;;5139715;27;20201;-65
2024/01/16 04:59:05;;;;;;;1.15;1.08;;;;;;;;;;5139423;27;20203;-65
2024/01/16 05:01:32;;;;;;;1.00;0.90;;;;;;;;;;5139857;27;20468;-65
2024/01/16 05:04:00;;;;;;;1.20;1.10;;;;;;;;;;5139918;27;20209;-65
2024/01/16 05:06:27;;;;;;;1.45;1.10;;;;;;;;;;5139523;27;20230;-64
2024/01/16 05:08:55;;;;;;;1.10;1.00;;;;;;;;;;5140132;27;20298;-64
2024/01/16 05:11:22;;;;;;;1.00;1.00;;;;;;;;;;5139467;27;20202;-64
2024/01/16 05:13:49;;;;;;;1.30;1.00;;;;;;;;;;5139160;27;20609;-64
2024/01/16 05:16:18;;;;;;;1.00;0.88;;;;;;;;;;5138945;27;20201;-64
2024/01/16 05:18:46;;;;;;;1.02;0.93;;;;;;;;;;5139418;27;20217;-64
2024/01/16 05:21:13;;;;;;;1.13;0.77;;;;;;;;;;5139345;27;20586;-65
2024/01/16 05:23:40;;;;;;;1.10;0.90;;;;;;;;;;5139431;27;20202;-65
2024/01/16 05:26:08;;;;;;;1.23;1.00;;;;;;;;;;5138980;27;20218;-64
2024/01/16 05:28:35;;;;;;;1.05;0.77;;;;;;;;;;5138841;27;20203;-64
2024/01/16 05:31:03;;;;;;;1.05;1.00;;;;;;;;;;5139023;27;20245;-64
2024/01/16 05:33:32;;;;;;;1.27;1.00;;;;;;;;;;5138672;27;20489;-64
2024/01/16 05:35:59;;;;;;;0.85;0.85;;;;;;;;;;5138564;27;20238;-64
2024/01/16 05:38:26;;;;;;;0.82;0.82;;;;;;;;;;5139020;27;20570;-64
2024/01/16 05:40:54;;;;;;;0.80;0.80;;;;;;;;;;5138505;27;20206;-64
2024/01/16 05:43:21;;;;;;;0.80;0.80;;;;;;;;;;5138751;27;20202;-64
2024/01/16 05:45:50;;;;;;;1.13;0.88;;;;;;;;;;5137618;27;20613;-64
2024/01/16 05:48:17;;;;;;;1.10;1.00;;;;;;;;;;5137368;27;20240;-64
2024/01/16 05:50:46;;;;;;;1.30;0.90;;;;;;;;;;5138086;27;20478;-64
2024/01/16 05:53:13;;;;;;;0.98;0.93;;;;;;;;;;5138169;27;20213;-65
2024/01/16 05:55:40;;;;;;;1.00;1.00;;;;;;;;;;5137851;27;20213;-65
2024/01/16 05:58:08;;;;;;;1.20;1.10;;;;;;;;;;5136884;27;20490;-64
2024/01/16 06:00:35;;;;;;;1.20;1.00;;;;;;;;;;5137268;27;20629;-64
2024/01/16 06:03:03;;;;;;;1.40;1.10;;;;;;;;;;5137707;27;20203;-64
2024/01/16 06:05:30;;;;;;;1.65;1.10;;;;;;;;;;5135722;27;20202;-64
2024/01/16 06:07:59;;;;;;;2.75;1.50;;;;;;;;;;5137369;27;20518;-65
2024/01/16 06:10:26;;;;;;;2.63;1.60;;;;;;;;;;5136649;27;20628;-64
2024/01/16 06:12:54;;;;;;;4.00;1.60;;;;;;;;;;5136364;27;20233;-64
2024/01/16 06:15:21;;;;;;;4.57;2.00;;;;;;;;;;5136242;27;20210;-64
2024/01/16 06:17:48;;;;;;;3.50;2.40;;;;;;;;;;5136264;27;20198;-64
2024/01/16 06:20:16;;;;;;;4.70;2.75;;;;;;;;;;5136437;27;20202;-64
2024/01/16 06:22:43;;;;;;;7.50;3.75;;;;;;;;;;5136873;27;20210;-65
2024/01/16 06:25:12;;;;;;;6.72;4.15;;;;;;;;;;5136915;27;20230;-64
2024/01/16 06:27:40;;;;;;;8.13;4.75;;;;;;;;;;5136639;27;20237;-64
2024/01/16 06:30:09;;;;;;;7.78;4.82;;;;;;;;;;5136295;27;20617;-64
2024/01/16 06:32:37;;;;;;;10.75;5.93;;;;;;;;;;5135510;27;20767;-64
2024/01/16 06:35:05;;;;;;;9.85;6.22;;;;;;;;;;5135911;27;20210;-65
2024/01/16 06:37:34;;;;;;;11.48;7.00;;;;;;;;;;5135748;27;20197;-65
2024/01/16 06:40:02;;;;;;;11.95;8.02;;;;;;;;;;5135231;27;20203;-64
2024/01/16 06:42:31;;;;;;;12.50;7.32;;;;;;;;;;5135462;27;20201;-64
2024/01/16 06:44:59;;;;;;;14.05;8.77;;;;;;;;;;5134674;27;20575;-64
2024/01/16 06:47:26;;;;;;;13.75;9.32;;;;;;;;;;5134676;27;20249;-64
2024/01/16 06:49:53;;;;;;;15.15;9.25;;;;;;;;;;5135025;27;20203;-64
2024/01/16 06:52:21;;;;;;;13.70;10.00;;;;;;;;;;5135375;27;20194;-64
2024/01/16 06:54:48;;;;;;;14.75;10.45;;;;;;;;;;5135444;27;20294;-64
2024/01/16 06:57:16;;;;;;;15.02;9.88;;;;;;;;;;5135564;27;20490;-64
2024/01/16 06:59:44;;;;;;;14.00;10.38;;;;;;;;;;5135320;27;20222;-64
2024/01/16 07:02:12;;;;;;;14.68;10.32;;;;;;;;;;5135183;27;20203;-64
2024/01/16 07:04:39;;;;;;;13.48;10.45;;;;;;;;;;5135399;27;20203;-64
2024/01/16 07:07:06;;;;;;;14.40;10.35;;;;;;;;;;5135800;27;20228;-64
2024/01/16 07:09:34;;;;;;;15.52;11.43;;;;;;;;;;5135597;27;20282;-64
2024/01/16 07:12:03;;;;;;;14.60;11.18;;;;;;;;;;5135557;27;20209;-64
2024/01/16 07:14:30;;;;;;;18.55;11.88;;;;;;;;;;5136292;27;20229;-64
2024/01/16 07:16:59;;;;;;;13.45;10.95;;;;;;;;;;5134826;27;20202;-65
2024/01/16 07:19:27;;;;;;;14.73;11.07;;;;;;;;;;5135944;27;20213;-64
2024/01/16 07:21:55;;;;;;;14.13;11.20;;;;;;;;;;5136070;27;20569;-64
2024/01/16 07:24:22;;;;;;;17.73;11.55;;;;;;;;;;5135952;27;20208;-65
2024/01/16 07:26:49;;;;;;;14.05;11.77;;;;;;;;;;5136372;27;20247;-64
2024/01/16 07:29:17;;;;;;;14.50;11.18;;;;;;;;;;5136041;27;20293;-64
2024/01/16 07:31:44;;;;;;;16.63;11.68;;;;;;;;;;5135850;27;20480;-64
2024/01/16 07:34:17;;;;;;;13.82;11.55;;;;;;;;;;5135349;27;20234;-64
2024/01/16 07:36:45;;;;;;;15.82;11.85;;;;;;;;;;5136330;27;20505;-64
2024/01/16 07:39:12;;;;;;;13.63;10.90;;;;;;;;;;5136284;28;20478;-64
2024/01/16 07:41:39;;;;;;;13.88;11.55;;;;;;;;;;5135407;27;20206;-65
2024/01/16 07:44:07;;;;;;;15.68;11.68;;;;;;;;;;5135584;28;20300;-65
2024/01/16 07:46:35;;;;;;;14.10;11.32;;;;;;;;;;5135596;27;20202;-64
2024/01/16 07:49:02;;;;;;;16.02;12.45;;;;;;;;;;5135325;28;20202;-64
2024/01/16 07:51:31;;;;;;;15.93;11.18;;;;;;;;;;5135511;27;20566;-65
2024/01/16 07:54:06;;;;;;;13.93;11.32;;;;;;;;;;5135342;27;20202;-64
2024/01/16 07:56:34;;;;;;;12.98;10.93;;;;;;;;;;5134885;27;20716;-64
2024/01/16 07:59:02;;;;;;;14.73;11.85;;;;;;;;;;5135220;28;20209;-65
2024/01/16 08:01:29;;;;;;;13.63;10.85;;;;;;;;;;5135318;27;20616;-64
2024/01/16 08:03:57;;;;;;;12.95;10.52;;;;;;;;;;5135703;27;20297;-64
2024/01/16 08:06:25;;;;;;;13.00;11.18;;;;;;;;;;5135472;27;20296;-64
2024/01/16 08:08:54;;;;;;;11.73;10.13;;;;;;;;;;5135480;28;20218;-64
2024/01/16 08:11:21;;;;;;;12.05;10.40;;;;;;;;;;5135059;27;20248;-65
2024/01/16 08:13:49;;;;;;;14.60;10.90;;;;;;;;;;5135153;27;20262;-65
2024/01/16 08:16:16;;;;;;;13.93;10.88;;;;;;;;;;5135118;28;20210;-65
2024/01/16 08:18:44;;;;;;;12.15;10.80;;;;;;;;;;5135460;27;20282;-64
2024/01/16 08:21:11;;;;;;;12.57;10.40;;;;;;;;;;5134847;28;20201;-64
2024/01/16 08:23:39;;;;;;;11.10;9.93;;;;;;;;;;5135389;27;20205;-64
2024/01/16 08:26:07;;;;;;;11.75;9.30;;;;;;;;;;5135582;28;20202;-64
2024/01/16 08:28:35;;;;;;;11.82;9.20;;;;;;;;;;5136659;27;20236;-64
2024/01/16 08:31:03;;;;;;;11.88;9.70;;;;;;;;;;5138542;27;20241;-65
2024/01/16 08:33:31;;;;;;;10.50;9.23;;;;;;;;;;5139394;27;20203;-64
2024/01/16 08:35:58;;;;;;;11.45;9.20;;;;;;;;;;5139079;27;20199;-64
2024/01/16 08:38:26;;;;;;;10.25;9.13;;;;;;;;;;5138475;27;20236;-65
2024/01/16 08:40:53;;;;;;;10.43;8.30;;;;;;;;;;5139111;27;20203;-65
2024/01/16 08:43:22;;;;;;;11.13;9.23;;;;;;;;;;5138814;27;20210;-65
2024/01/16 08:45:50;;;;;;;11.05;9.07;;;;;;;;;;5138914;27;20259;-65
2024/01/16 08:48:17;;;;;;;9.43;8.32;;;;;;;;;;5138235;27;20253;-64
2024/01/16 08:50:45;;;;;;;10.10;8.35;;;;;;;;;;5138224;27;20562;-64
2024/01/16 08:53:12;;;;;;;8.75;7.70;;;;;;;;;;5138712;27;20209;-64
2024/01/16 08:55:40;;;;;;;10.15;8.18;;;;;;;;;;5138795;27;20206;-64
2024/01/16 08:58:09;;;;;;;9.93;7.93;;;;;;;;;;5138128;27;20198;-64
2024/01/16 09:00:38;;;;;;;8.43;7.53;;;;;;;;;;5138335;27;20230;-64
2024/01/16 09:03:05;;;;;;;7.85;7.05;;;;;;;;;;5136285;27;20202;-64
2024/01/16 09:05:36;;;;;;;9.38;7.60;;;;;;;;;;5138009;27;20210;-65
2024/01/16 09:08:03;;;;;;;8.65;7.05;;;;;;;;;;5138248;27;20252;-64
2024/01/16 09:10:31;;;;;;;8.27;7.20;;;;;;;;;;5137941;27;20217;-64
2024/01/16 09:12:59;;;;;;;7.93;6.93;;;;;;;;;;5138002;27;20209;-64
2024/01/16 09:15:26;;;;;;;8.93;7.05;;;;;;;;;;5137826;27;20651;-65
2024/01/16 09:17:55;;;;;;;8.50;6.78;;;;;;;;;;5138163;27;20191;-65
2024/01/16 09:20:23;;;;;;;7.75;6.72;;;;;;;;;;5138105;27;20198;-64
2024/01/16 09:22:51;;;;;;;6.93;6.18;;;;;;;;;;5137905;27;20194;-64
2024/01/16 09:25:18;;;;;;;8.43;6.55;;;;;;;;;;5138316;27;20209;-64
2024/01/16 09:27:45;;;;;;;8.60;5.93;;;;;;;;;;5138038;27;20261;-65
2024/01/16 09:30:13;;;;;;;7.75;5.90;;;;;;;;;;5137663;27;20267;-65
2024/01/16 09:32:42;;;;;;;6.55;5.63;;;;;;;;;;5137914;27;20206;-64
2024/01/16 09:35:11;;;;;;;7.63;5.90;;;;;;;;;;5137876;27;20210;-64
2024/01/16 09:37:39;;;;;;;8.13;5.97;;;;;;;;;;5137965;27;20206;-65
2024/01/16 09:40:08;;;;;;;6.00;5.35;;;;;;;;;;5137273;27;20202;-65
2024/01/16 09:42:35;;;;;;;6.28;5.65;;;;;;;;;;5137028;27;20316;-64
2024/01/16 09:45:03;;;;;;;6.43;5.38;;;;;;;;;;5137710;27;20202;-64
2024/01/16 09:47:31;;;;;;;6.88;5.35;;;;;;;;;;5137451;27;20213;-65
2024/01/16 09:49:59;;;;;;;5.90;4.97;;;;;;;;;;5137929;27;20205;-64
2024/01/16 09:52:28;;;;;;;5.70;4.85;;;;;;;;;;5137393;27;20202;-64
2024/01/16 09:54:56;;;;;;;6.55;5.35;;;;;;;;;;5137396;27;20575;-64
2024/01/16 09:57:26;;;;;;;5.45;4.95;;;;;;;;;;5137820;27;20209;-64
2024/01/16 09:59:54;;;;;;;6.43;4.75;;;;;;;;;;5137538;27;20222;-64
2024/01/16 10:02:22;;;;;;;5.78;4.75;;;;;;;;;;5137127;27;20206;-65
2024/01/16 10:04:49;;;;;;;5.88;4.80;;;;;;;;;;5136740;27;20202;-64
2024/01/16 10:07:18;;;;;;;5.38;4.10;;;;;;;;;;5136317;27;20202;-64
2024/01/16 10:09:47;;;;;;;6.45;4.50;;;;;;;;;;5137238;27;20597;-65
2024/01/16 10:12:15;;;;;;;4.85;4.32;;;;;;;;;;5136450;27;20321;-64
2024/01/16 10:14:43;;;;;;;5.45;4.30;;;;;;;;;;5136706;27;20233;-65
2024/01/16 10:17:15;;;;;;;4.80;4.22;;;;;;;;;;5136525;27;20202;-64
2024/01/16 10:19:49;;;;;;;5.15;4.22;;;;;;;;;;5136746;27;20590;-65
2024/01/16 10:22:21;;;;;;;5.43;4.30;;;;;;;;;;5137281;27;20301;-64
2024/01/16 10:24:50;;;;;;;5.13;4.00;;;;;;;;;;5137140;27;20210;-64
2024/01/16 10:27:18;;;;;;;4.45;3.72;;;;;;;;;;5136192;27;20245;-64
2024/01/16 10:29:57;;;;;;;5.18;4.20;;;;;;;;;;5136432;27;20263;-64
2024/01/16 10:32:30;;;;;;;4.53;3.95;;;;;;;;;;5136437;27;20198;-65
2024/01/16 10:35:05;;;;;;;5.07;3.85;;;;;;;;;;5136353;27;20203;-65
2024/01/16 10:37:32;;;;;;;5.32;4.00;;;;;;;;;;5135861;27;20283;-64
2024/01/16 10:40:01;;;;;;;4.50;3.70;;;;;;;;;;5135888;27;20202;-64
2024/01/16 10:42:29;;;;;;;5.60;3.95;;;;;;;;;;5136032;27;20697;-64
2024/01/16 10:44:56;;;;;;;3.72;3.42;;;;;;;;;;5135963;27;20209;-64
2024/01/16 10:47:24;;;;;;;4.13;3.70;;;;;;;;;;5136020;27;20198;-64
2024/01/16 10:49:51;;;;;;;4.00;3.60;;;;;;;;;;5135873;27;20206;-64
2024/01/16 10:52:19;;;;;;;4.85;3.72;;;;;;;;;;5136177;27;20202;-64
2024/01/16 10:54:50;;;;;;;3.92;3.20;;;;;;;;;;5117978;27;20198;-64
2024/01/16 10:57:19;;;;;;;4.05;3.30;;;;;;;;;;5135838;27;20510;-64
2024/01/16 10:59:50;;;;;;;3.90;3.30;;;;;;;;;;5135999;27;20230;-64
2024/01/16 11:02:21;;;;;;;3.65;3.25;;;;;;;;;;5135689;27;20483;-65
2024/01/16 11:04:49;;;;;;;4.35;3.47;;;;;;;;;;5135302;27;20202;-64
2024/01/16 11:07:17;;;;;;;4.32;3.00;;;;;;;;;;5135611;27;20285;-64
2024/01/16 11:09:45;;;;;;;3.25;2.60;;;;;;;;;;5134420;27;20325;-64
2024/01/16 11:12:16;;;;;;;3.17;2.72;;;;;;;;;;5134918;27;20198;-64
2024/01/16 11:14:45;;;;;;;3.40;3.10;;;;;;;;;;5134721;27;20255;-64
2024/01/16 11:17:18;;;;;;;3.20;2.90;;;;;;;;;;5135325;27;20202;-65
2024/01/16 11:19:46;;;;;;;2.95;2.67;;;;;;;;;;5134789;27;20238;-64
2024/01/16 11:22:14;;;;;;;2.88;2.67;;;;;;;;;;5134815;27;20203;-64
2024/01/16 11:24:42;;;;;;;3.22;2.92;;;;;;;;;;5134022;27;20210;-65
2024/01/16 11:27:09;;;;;;;3.25;2.72;;;;;;;;;;5134224;27;20198;-64
2024/01/16 11:29:38;;;;;;;3.35;2.85;;;;;;;;;;5134381;27;20610;-65
2024/01/16 11:32:07;;;;;;;3.22;2.55;;;;;;;;;;5134511;27;20202;-64
2024/01/16 11:34:54;;;;;;;3.40;2.90;;;;;;;;;;5134815;27;20198;-64
2024/01/16 11:37:27;;;;;;;3.88;2.85;;;;;;;;;;5134323;27;20202;-64
2024/01/16 11:39:56;;;;;;;2.78;2.58;;;;;;;;;;5134751;27;20190;-64
2024/01/16 11:42:28;;;;;;;2.90;2.20;;;;;;;;;;5134740;27;20194;-64
2024/01/16 11:44:55;;;;;;;2.88;2.30;;;;;;;;;;5134553;28;20202;-64
2024/01/16 11:47:24;;;;;;;2.70;2.50;;;;;;;;;;5134260;27;20214;-64
2024/01/16 11:49:52;;;;;;;2.80;2.25;;;;;;;;;;5134184;28;20249;-64
2024/01/16 11:52:41;;;;;;;2.60;2.20;;;;;;;;;;5134763;28;20229;-64
2024/01/16 11:55:23;;;;;;;3.00;2.67;;;;;;;;;;5134848;28;20209;-64
2024/01/16 11:58:02;;;;;;;3.00;2.50;;;;;;;;;;5134310;27;20213;-65
2024/01/16 12:00:29;;;;;;;2.42;2.20;;;;;;;;;;5134739;27;20329;-65
2024/01/16 12:02:58;;;;;;;3.65;2.35;;;;;;;;;;5135025;27;20258;-65
2024/01/16 12:05:26;;;;;;;2.30;2.10;;;;;;;;;;5138759;27;20202;-64
2024/01/16 12:07:54;;;;;;;2.42;2.10;;;;;;;;;;5138135;27;20206;-64
2024/01/16 12:10:22;;;;;;;2.20;2.00;;;;;;;;;;5138348;27;20202;-64
2024/01/16 12:12:50;;;;;;;2.33;2.13;;;;;;;;;;5138086;27;20297;-64
2024/01/16 12:15:18;;;;;;;2.28;2.05;;;;;;;;;;5138835;27;20214;-64
2024/01/16 12:17:55;;;;;;;2.30;1.98;;;;;;;;;;5137680;27;20213;-64
2024/01/16 12:20:24;;;;;;;2.47;2.28;;;;;;;;;;5137990;27;20464;-65
2024/01/16 12:22:59;;;;;;;2.88;2.28;;;;;;;;;;5137618;27;20198;-64
2024/01/16 12:25:27;;;;;;;2.70;1.95;;;;;;;;;;5138527;27;20247;-64
2024/01/16 12:27:58;;;;;;;2.65;2.08;;;;;;;;;;5138119;27;20299;-64
2024/01/16 12:30:26;;;;;;;2.42;2.22;;;;;;;;;;5137838;27;20667;-64
2024/01/16 12:32:54;;;;;;;2.40;1.92;;;;;;;;;;5138040;27;20225;-64
2024/01/16 12:35:22;;;;;;;2.38;2.00;;;;;;;;;;5137173;27;20199;-64
2024/01/16 12:38:05;;;;;;;2.88;2.10;;;;;;;;;;5138008;27;20214;-64
2024/01/16 12:40:36;;;;;;;1.98;1.80;;;;;;;;;;5134378;27;20237;-64
2024/01/16 12:43:04;;;;;;;2.20;2.00;;;;;;;;;;5137691;27;20235;-64
2024/01/16 12:45:32;;;;;;;2.30;2.03;;;;;;;;;;5137987;27;20611;-65
2024/01/16 12:48:03;;;;;;;2.10;1.90;;;;;;;;;;5137918;27;20202;-64
2024/01/16 12:50:30;;;;;;;2.40;2.00;;;;;;;;;;5137400;27;20249;-64
2024/01/16 12:53:05;;;;;;;2.22;2.00;;;;;;;;;;5137873;27;20220;-64
2024/01/16 12:55:35;;;;;;;2.20;2.00;;;;;;;;;;5137259;27;20201;-64
2024/01/16 12:58:15;;;;;;;2.00;1.80;;;;;;;;;;5136919;27;20212;-65
2024/01/16 13:00:43;;;;;;;1.95;1.80;;;;;;;;;;5137606;27;20248;-64
2024/01/16 13:03:16;;;;;;;2.20;2.00;;;;;;;;;;5137873;27;20217;-64
2024/01/16 13:05:44;;;;;;;2.28;2.08;;;;;;;;;;5138235;27;20210;-64
2024/01/16 13:08:11;;;;;;;2.17;1.73;;;;;;;;;;5137600;27;20707;-65
2024/01/16 13:10:40;;;;;;;1.95;1.75;;;;;;;;;;5137365;27;20205;-64
2024/01/16 13:13:14;;;;;;;2.25;2.05;;;;;;;;;;5136742;27;20456;-64
2024/01/16 13:15:41;;;;;;;1.80;1.70;;;;;;;;;;5135195;27;20290;-64
2024/01/16 13:18:19;;;;;;;1.98;1.75;;;;;;;;;;5137427;27;20195;-64
2024/01/16 13:20:46;;;;;;;2.47;1.80;;;;;;;;;;5137128;27;20202;-64
2024/01/16 13:23:14;;;;;;;1.80;1.70;;;;;;;;;;5138220;27;20206;-64
2024/01/16 13:25:45;;;;;;;2.45;1.95;;;;;;;;;;5137620;27;20371;-64
2024/01/16 13:28:13;;;;;;;2.40;1.70;;;;;;;;;;5137340;27;20278;-65
2024/01/16 13:30:41;;;;;;;1.90;1.63;;;;;;;;;;5137017;27;20267;-64
2024/01/16 13:33:09;;;;;;;2.13;1.95;;;;;;;;;;5136908;27;20307;-64
2024/01/16 13:35:37;;;;;;;2.22;1.67;;;;;;;;;;5135073;27;20582;-64
2024/01/16 13:38:04;;;;;;;2.10;1.90;;;;;;;;;;5136975;27;20301;-64
2024/01/16 13:40:32;;;;;;;1.80;1.70;;;;;;;;;;5136533;27;20229;-64
2024/01/16 13:43:01;;;;;;;1.73;1.60;;;;;;;;;;5136067;27;20686;-64
2024/01/16 13:45:29;;;;;;;1.95;1.58;;;;;;;;;;5137381;27;20203;-64
2024/01/16 13:47:56;;;;;;;2.30;1.95;;;;;;;;;;5137845;27;20210;-64
2024/01/16 13:50:23;;;;;;;2.08;1.45;;;;;;;;;;5136234;27;20223;-64
2024/01/16 13:52:51;;;;;;;1.60;1.50;;;;;;;;;;5136602;27;20198;-64
2024/01/16 13:55:19;;;;;;;1.90;1.70;;;;;;;;;;5136860;27;20474;-64
2024/01/16 13:57:47;;;;;;;2.20;2.00;;;;;;;;;;5135804;27;20213;-64
2024/01/16 14:00:17;;;;;;;2.47;1.80;;;;;;;;;;5135685;27;20250;-64
2024/01/16 14:02:45;;;;;;;2.00;1.80;;;;;;;;;;5136679;27;20290;-64
2024/01/16 14:05:15;;;;;;;2.20;1.80;;;;;;;;;;5137133;27;20489;-64
2024/01/16 14:07:44;;;;;;;1.85;1.75;;;;;;;;;;5137416;27;20237;-64
2024/01/16 14:10:12;;;;;;;2.20;2.00;;;;;;;;;;5135900;27;20310;-64
2024/01/16 14:12:42;;;;;;;1.85;1.63;;;;;;;;;;5136482;27;20208;-65
2024/01/16 14:15:16;;;;;;;1.50;1.40;;;;;;;;;;5136542;27;20285;-64
2024/01/16 14:17:44;;;;;;;2.10;1.92;;;;;;;;;;5135901;27;20222;-64
2024/01/16 14:20:12;;;;;;;2.38;1.73;;;;;;;;;;5135837;27;20199;-65
2024/01/16 14:22:40;;;;;;;1.80;1.70;;;;;;;;;;5136124;27;20206;-65
2024/01/16 14:25:10;;;;;;;1.77;1.65;;;;;;;;;;5133664;27;20202;-64
2024/01/16 14:27:40;;;;;;;1.77;1.67;;;;;;;;;;5133998;27;20214;-64
2024/01/16 14:30:10;;;;;;;1.70;1.60;;;;;;;;;;5130657;27;20325;-64
2024/01/16 14:32:42;;;;;;;2.38;1.52;;;;;;;;;;5135344;27;20206;-64
2024/01/16 14:35:12;;;;;;;1.63;1.50;;;;;;;;;;5134259;27;20297;-65
2024/01/16 14:37:40;;;;;;;1.73;1.63;;;;;;;;;;5134328;27;20297;-65
2024/01/16 14:40:12;;;;;;;1.70;1.60;;;;;;;;;;5133419;27;20232;-65
2024/01/16 14:42:40;;;;;;;1.77;1.67;;;;;;;;;;5134680;27;20206;-65
2024/01/16 14:45:07;;;;;;;2.10;1.73;;;;;;;;;;5134621;27;20202;-65
2024/01/16 14:47:35;;;;;;;1.65;1.55;;;;;;;;;;5133717;27;20214;-64